sensor_id;sensor_type;location;lat;lon;timestamp;pressure;altitude;pressure_sealevel;temperature;humidity
12203;BME280;6164;42.178;24.622;2023-02-15T00:01:16;100893.69;;;3.00;93.88
12203;BME280;6164;42.178;24.622;2023-02-15T00:03:43;100884.81;;;3.02;93.73
12203;BME280;6164;42.178;24.622;2023-02-15T00:06:10;100888.59;;;2.97;93.36
12203;BME280;6164;42.178;24.622;2023-02-15T00:08:37;100887.53;;;3.01;93.91
12203;BME280;6164;42.178;24.622;2023-02-15T00:11:04;100889.38;;;2.99;94.33
12203;BME280;6164;42.178;24.622;2023-02-15T00:13:31;100883.66;;;2.92;94.52
12203;BME280;6164;42.178;24.622;2023-02-15T00:16:00;100893.19;;;2.93;95.11
12203;BME280;6164;42.178;24.622;2023-02-15T00:18:26;100890.16;;;2.85;95.24
12203;BME280;6164;42.178;24.622;2023-02-15T00:20:53;100892.72;;;2.87;96.32
12203;BME280;6164;42.178;24.622;2023-02-15T00:23:21;100899.28;;;2.78;97.28
12203;BME280;6164;42.178;24.622;2023-02-15T00:25:47;100903.16;;;2.87;97.33
12203;BME280;6164;42.178;24.622;2023-02-15T00:28:13;100908.03;;;2.77;97.98
12203;BME280;6164;42.178;24.622;2023-02-15T00:30:40;100904.31;;;2.81;98.71
12203;BME280;6164;42.178;24.622;2023-02-15T00:33:06;100906.75;;;2.84;98.64
12203;BME280;6164;42.178;24.622;2023-02-15T00:35:33;100901.13;;;2.76;99.46
12203;BME280;6164;42.178;24.622;2023-02-15T00:37:59;100904.41;;;2.80;99.45
12203;BME280;6164;42.178;24.622;2023-02-15T00:40:27;100902.38;;;2.85;99.41
12203;BME280;6164;42.178;24.622;2023-02-15T00:42:54;100914.75;;;2.81;100.00
12203;BME280;6164;42.178;24.622;2023-02-15T00:45:20;100901.91;;;2.78;100.00
12203;BME280;6164;42.178;24.622;2023-02-15T00:47:47;100904.50;;;2.78;100.00
12203;BME280;6164;42.178;24.622;2023-02-15T00:50:13;100906.75;;;2.84;100.00
12203;BME280;6164;42.178;24.622;2023-02-15T00:52:40;100908.97;;;2.76;100.00
12203;BME280;6164;42.178;24.622;2023-02-15T00:55:06;100908.03;;;2.77;100.00
12203;BME280;6164;42.178;24.622;2023-02-15T00:57:34;100907.34;;;2.73;100.00
12203;BME280;6164;42.178;24.622;2023-02-15T01:00:01;100904.25;;;2.67;100.00
12203;BME280;6164;42.178;24.622;2023-02-15T01:02:27;100899.88;;;2.67;100.00
12203;BME280;6164;42.178;24.622;2023-02-15T01:04:54;100898.41;;;2.63;100.00
12203;BME280;6164;42.178;24.622;2023-02-15T01:07:20;100901.50;;;2.70;100.00
12203;BME280;6164;42.178;24.622;2023-02-15T01:09:47;100893.59;;;2.72;100.00
12203;BME280;6164;42.178;24.622;2023-02-15T01:12:13;100891.22;;;2.67;100.00
12203;BME280;6164;42.178;24.622;2023-02-15T01:14:41;100882.41;;;2.69;100.00
12203;BME280;6164;42.178;24.622;2023-02-15T01:17:08;100891.63;;;2.75;100.00
12203;BME280;6164;42.178;24.622;2023-02-15T01:19:34;100878.16;;;2.67;100.00
12203;BME280;6164;42.178;24.622;2023-02-15T01:22:01;100882.47;;;2.68;100.00
12203;BME280;6164;42.178;24.622;2023-02-15T01:24:27;100877.94;;;2.72;100.00
12203;BME280;6164;42.178;24.622;2023-02-15T01:26:54;100878.59;;;2.75;100.00
12203;BME280;6164;42.178;24.622;2023-02-15T01:29:20;100873.53;;;2.72;100.00
12203;BME280;6164;42.178;24.622;2023-02-15T01:31:48;100875.06;;;2.76;100.00
12203;BME280;6164;42.178;24.622;2023-02-15T01:34:15;100870.84;;;2.73;100.00
12203;BME280;6164;42.178;24.622;2023-02-15T01:36:41;100873.44;;;2.73;100.00
12203;BME280;6164;42.178;24.622;2023-02-15T01:39:08;100877.25;;;2.68;100.00
12203;BME280;6164;42.178;24.622;2023-02-15T01:41:35;100885.19;;;2.66;100.00
12203;BME280;6164;42.178;24.622;2023-02-15T01:44:02;100878.63;;;2.59;100.00
12203;BME280;6164;42.178;24.622;2023-02-15T01:46:30;100887.28;;;2.60;100.00
12203;BME280;6164;42.178;24.622;2023-02-15T01:49:04;100878.63;;;2.59;100.00
12203;BME280;6164;42.178;24.622;2023-02-15T01:51:35;100888.03;;;2.62;100.00
12203;BME280;6164;42.178;24.622;2023-02-15T01:54:05;100893.19;;;2.63;100.00
12203;BME280;6164;42.178;24.622;2023-02-15T01:56:33;100898.31;;;2.65;100.00
12203;BME280;6164;42.178;24.622;2023-02-15T01:59:02;100900.34;;;2.60;100.00
12203;BME280;6164;42.178;24.622;2023-02-15T02:01:29;100900.25;;;2.61;100.00
12203;BME280;6164;42.178;24.622;2023-02-15T02:03:56;100901.50;;;2.54;100.00
12203;BME280;6164;42.178;24.622;2023-02-15T02:06:26;100908.66;;;2.51;100.00
12203;BME280;6164;42.178;24.622;2023-02-15T02:08:53;100907.06;;;2.33;100.00
12203;BME280;6164;42.178;24.622;2023-02-15T02:11:20;100905.41;;;2.32;100.00
12203;BME280;6164;42.178;24.622;2023-02-15T02:13:47;100905.47;;;2.30;100.00
12203;BME280;6164;42.178;24.622;2023-02-15T02:16:14;100904.91;;;2.25;100.00
12203;BME280;6164;42.178;24.622;2023-02-15T02:18:44;100909.44;;;2.22;100.00
12203;BME280;6164;42.178;24.622;2023-02-15T02:21:21;100914.31;;;2.12;100.00
12203;BME280;6164;42.178;24.622;2023-02-15T02:24:06;100917.91;;;2.10;100.00
12203;BME280;6164;42.178;24.622;2023-02-15T02:29:43;100916.66;;;2.17;100.00
12203;BME280;6164;42.178;24.622;2023-02-15T02:35:01;100917.03;;;2.09;100.00
12203;BME280;6164;42.178;24.622;2023-02-15T02:37:33;100909.22;;;2.09;100.00
12203;BME280;6164;42.178;24.622;2023-02-15T02:40:04;100914.44;;;2.09;100.00
12203;BME280;6164;42.178;24.622;2023-02-15T02:42:34;100928.81;;;2.01;100.00
12203;BME280;6164;42.178;24.622;2023-02-15T02:45:03;100921.75;;;2.03;100.00
12203;BME280;6164;42.178;24.622;2023-02-15T02:47:32;100925.19;;;2.03;100.00
12203;BME280;6164;42.178;24.622;2023-02-15T02:50:03;100926.06;;;2.04;100.00
12203;BME280;6164;42.178;24.622;2023-02-15T02:52:38;100929.72;;;2.00;100.00
12203;BME280;6164;42.178;24.622;2023-02-15T02:55:06;100928.53;;;1.90;100.00
12203;BME280;6164;42.178;24.622;2023-02-15T02:57:34;100925.25;;;1.86;100.00
12203;BME280;6164;42.178;24.622;2023-02-15T03:00:03;100932.16;;;1.87;100.00
12203;BME280;6164;42.178;24.622;2023-02-15T03:02:34;100923.06;;;1.79;100.00
12203;BME280;6164;42.178;24.622;2023-02-15T03:05:05;100916.88;;;1.81;100.00
12203;BME280;6164;42.178;24.622;2023-02-15T03:07:34;100920.13;;;1.85;100.00
12203;BME280;6164;42.178;24.622;2023-02-15T03:10:03;100922.38;;;1.75;100.00
12203;BME280;6164;42.178;24.622;2023-02-15T03:12:32;100927.19;;;1.83;100.00
12203;BME280;6164;42.178;24.622;2023-02-15T03:15:00;100932.63;;;1.78;100.00
12203;BME280;6164;42.178;24.622;2023-02-15T03:17:28;100933.41;;;1.80;100.00
12203;BME280;6164;42.178;24.622;2023-02-15T03:19:57;100934.53;;;1.75;100.00
12203;BME280;6164;42.178;24.622;2023-02-15T03:22:28;100930.88;;;1.79;100.00
12203;BME280;6164;42.178;24.622;2023-02-15T03:24:56;100930.19;;;1.75;100.00
12203;BME280;6164;42.178;24.622;2023-02-15T03:27:24;100929.81;;;1.83;100.00
12203;BME280;6164;42.178;24.622;2023-02-15T03:29:52;100929.56;;;1.87;100.00
12203;BME280;6164;42.178;24.622;2023-02-15T03:32:19;100930.63;;;1.83;100.00
12203;BME280;6164;42.178;24.622;2023-02-15T03:34:46;100926.88;;;1.89;100.00
12203;BME280;6164;42.178;24.622;2023-02-15T03:37:13;100933.28;;;1.99;100.00
12203;BME280;6164;42.178;24.622;2023-02-15T03:39:44;100936.78;;;1.98;100.00
12203;BME280;6164;42.178;24.622;2023-02-15T03:42:14;100932.69;;;1.94;100.00
12203;BME280;6164;42.178;24.622;2023-02-15T03:44:45;100933.00;;;1.88;100.00
12203;BME280;6164;42.178;24.622;2023-02-15T03:47:13;100938.13;;;1.89;100.00
12203;BME280;6164;42.178;24.622;2023-02-15T03:49:42;100937.75;;;1.80;100.00
12203;BME280;6164;42.178;24.622;2023-02-15T03:52:10;100944.81;;;1.78;100.00
12203;BME280;6164;42.178;24.622;2023-02-15T03:54:37;100940.78;;;1.72;100.00
12203;BME280;6164;42.178;24.622;2023-02-15T03:57:13;100949.34;;;1.74;100.00
12203;BME280;6164;42.178;24.622;2023-02-15T03:59:58;100943.72;;;1.82;100.00
12203;BME280;6164;42.178;24.622;2023-02-15T04:02:45;100945.50;;;1.81;100.00
12203;BME280;6164;42.178;24.622;2023-02-15T04:05:17;100945.97;;;1.72;100.00
12203;BME280;6164;42.178;24.622;2023-02-15T04:07:43;100940.69;;;1.74;100.00
12203;BME280;6164;42.178;24.622;2023-02-15T04:10:10;100944.44;;;1.68;100.00
12203;BME280;6164;42.178;24.622;2023-02-15T04:12:55;100941.78;;;1.70;100.00
12203;BME280;6164;42.178;24.622;2023-02-15T04:15:22;100940.16;;;1.67;100.00
12203;BME280;6164;42.178;24.622;2023-02-15T04:18:05;100946.22;;;1.68;100.00
12203;BME280;6164;42.178;24.622;2023-02-15T04:20:32;100940.94;;;1.69;100.00
12203;BME280;6164;42.178;24.622;2023-02-15T04:23:16;100939.22;;;1.68;100.00
12203;BME280;6164;42.178;24.622;2023-02-15T04:26:02;100940.25;;;1.66;100.00
12203;BME280;6164;42.178;24.622;2023-02-15T04:28:30;100942.84;;;1.66;100.00
12203;BME280;6164;42.178;24.622;2023-02-15T04:30:57;100947.91;;;1.69;100.00
12203;BME280;6164;42.178;24.622;2023-02-15T04:33:23;100957.44;;;1.68;100.00
12203;BME280;6164;42.178;24.622;2023-02-15T04:35:50;100956.84;;;1.63;100.00
12203;BME280;6164;42.178;24.622;2023-02-15T04:38:16;100960.91;;;1.69;100.00
12203;BME280;6164;42.178;24.622;2023-02-15T04:40:43;100949.63;;;1.68;100.00
12203;BME280;6164;42.178;24.622;2023-02-15T04:43:09;100961.75;;;1.69;100.00
12203;BME280;6164;42.178;24.622;2023-02-15T04:45:37;100961.16;;;1.64;100.00
12203;BME280;6164;42.178;24.622;2023-02-15T04:48:03;100958.63;;;1.63;100.00
12203;BME280;6164;42.178;24.622;2023-02-15T04:50:30;100965.94;;;1.72;100.00
12203;BME280;6164;42.178;24.622;2023-02-15T04:52:56;100979.13;;;1.69;100.00
12203;BME280;6164;42.178;24.622;2023-02-15T04:55:23;100976.84;;;1.63;100.00
12203;BME280;6164;42.178;24.622;2023-02-15T04:57:49;100977.53;;;1.66;100.00
12203;BME280;6164;42.178;24.622;2023-02-15T05:00:16;100978.69;;;1.61;100.00
12203;BME280;6164;42.178;24.622;2023-02-15T05:02:44;100986.50;;;1.61;100.00
12203;BME280;6164;42.178;24.622;2023-02-15T05:05:10;100988.66;;;1.53;100.00
12203;BME280;6164;42.178;24.622;2023-02-15T05:07:40;100990.84;;;1.60;100.00
12203;BME280;6164;42.178;24.622;2023-02-15T05:10:07;100998.75;;;1.59;100.00
12203;BME280;6164;42.178;24.622;2023-02-15T05:12:33;101001.25;;;1.60;100.00
12203;BME280;6164;42.178;24.622;2023-02-15T05:15:00;101000.44;;;1.60;100.00
12203;BME280;6164;42.178;24.622;2023-02-15T05:17:26;100996.13;;;1.59;100.00
12203;BME280;6164;42.178;24.622;2023-02-15T05:19:54;101005.72;;;1.58;100.00
12203;BME280;6164;42.178;24.622;2023-02-15T05:22:20;101011.13;;;1.54;100.00
12203;BME280;6164;42.178;24.622;2023-02-15T05:24:47;101018.13;;;1.53;100.00
12203;BME280;6164;42.178;24.622;2023-02-15T05:27:31;101017.56;;;1.64;100.00
12203;BME280;6164;42.178;24.622;2023-02-15T05:30:15;101017.72;;;1.61;100.00
12203;BME280;6164;42.178;24.622;2023-02-15T05:32:41;101023.69;;;1.63;100.00
12203;BME280;6164;42.178;24.622;2023-02-15T05:35:12;101022.53;;;1.68;100.00
12203;BME280;6164;42.178;24.622;2023-02-15T05:37:39;101024.22;;;1.69;100.00
12203;BME280;6164;42.178;24.622;2023-02-15T05:40:07;101030.06;;;1.74;100.00
12203;BME280;6164;42.178;24.622;2023-02-15T05:42:33;101027.22;;;1.79;100.00
12203;BME280;6164;42.178;24.622;2023-02-15T05:45:00;101035.53;;;1.85;100.00
12203;BME280;6164;42.178;24.622;2023-02-15T05:47:28;101040.38;;;1.93;100.00
12203;BME280;6164;42.178;24.622;2023-02-15T05:49:55;101041.44;;;1.89;100.00
12203;BME280;6164;42.178;24.622;2023-02-15T05:52:23;101043.56;;;1.98;100.00
12203;BME280;6164;42.178;24.622;2023-02-15T05:54:49;101040.75;;;2.02;100.00
12203;BME280;6164;42.178;24.622;2023-02-15T05:57:16;101039.63;;;2.06;100.00
12203;BME280;6164;42.178;24.622;2023-02-15T05:59:42;101053.09;;;2.14;100.00
12203;BME280;6164;42.178;24.622;2023-02-15T06:02:09;101061.31;;;2.24;100.00
12203;BME280;6164;42.178;24.622;2023-02-15T06:04:36;101064.56;;;2.27;100.00
12203;BME280;6164;42.178;24.622;2023-02-15T06:07:02;101064.69;;;2.41;100.00
12203;BME280;6164;42.178;24.622;2023-02-15T06:09:30;101069.34;;;2.52;100.00
12203;BME280;6164;42.178;24.622;2023-02-15T06:11:57;101067.34;;;2.57;100.00
12203;BME280;6164;42.178;24.622;2023-02-15T06:14:23;101065.47;;;2.59;100.00
12203;BME280;6164;42.178;24.622;2023-02-15T06:16:50;101071.56;;;2.75;100.00
12203;BME280;6164;42.178;24.622;2023-02-15T06:19:16;101078.19;;;2.81;100.00
12203;BME280;6164;42.178;24.622;2023-02-15T06:21:43;101079.28;;;2.92;100.00
12203;BME280;6164;42.178;24.622;2023-02-15T06:24:09;101076.28;;;3.00;100.00
12203;BME280;6164;42.178;24.622;2023-02-15T06:26:37;101076.69;;;3.08;100.00
12203;BME280;6164;42.178;24.622;2023-02-15T06:29:04;101073.66;;;3.15;100.00
12203;BME280;6164;42.178;24.622;2023-02-15T06:31:30;101075.66;;;3.26;100.00
12203;BME280;6164;42.178;24.622;2023-02-15T06:33:57;101069.25;;;3.31;100.00
12203;BME280;6164;42.178;24.622;2023-02-15T06:36:26;101079.00;;;3.43;100.00
12203;BME280;6164;42.178;24.622;2023-02-15T06:38:52;101080.06;;;3.55;99.45
12203;BME280;6164;42.178;24.622;2023-02-15T06:41:19;101078.03;;;3.60;99.20
12203;BME280;6164;42.178;24.622;2023-02-15T06:43:47;101079.00;;;3.73;98.52
12203;BME280;6164;42.178;24.622;2023-02-15T06:46:13;101075.41;;;3.89;97.29
12203;BME280;6164;42.178;24.622;2023-02-15T06:48:40;101075.63;;;4.00;96.78
12203;BME280;6164;42.178;24.622;2023-02-15T06:51:06;101078.44;;;4.12;96.06
12203;BME280;6164;42.178;24.622;2023-02-15T06:53:33;101078.63;;;4.23;95.40
12203;BME280;6164;42.178;24.622;2023-02-15T06:56:00;101085.28;;;4.42;94.52
12203;BME280;6164;42.178;24.622;2023-02-15T06:58:28;101080.50;;;4.49;93.10
12203;BME280;6164;42.178;24.622;2023-02-15T07:00:55;101088.72;;;4.57;93.14
12203;BME280;6164;42.178;24.622;2023-02-15T07:03:22;101085.25;;;4.70;91.85
12203;BME280;6164;42.178;24.622;2023-02-15T07:05:48;101093.38;;;4.80;90.52
12203;BME280;6164;42.178;24.622;2023-02-15T07:08:15;101080.09;;;4.97;90.09
12203;BME280;6164;42.178;24.622;2023-02-15T07:10:43;101078.69;;;5.05;89.48
12203;BME280;6164;42.178;24.622;2023-02-15T07:13:09;101077.69;;;5.20;89.37
12203;BME280;6164;42.178;24.622;2023-02-15T07:15:35;101080.06;;;5.37;89.11
12203;BME280;6164;42.178;24.622;2023-02-15T07:18:02;101076.75;;;5.48;89.03
12203;BME280;6164;42.178;24.622;2023-02-15T07:20:30;101073.63;;;5.56;87.13
12203;BME280;6164;42.178;24.622;2023-02-15T07:22:58;101071.44;;;5.62;86.07
12203;BME280;6164;42.178;24.622;2023-02-15T07:25:24;101065.19;;;5.77;85.58
12203;BME280;6164;42.178;24.622;2023-02-15T07:27:55;101065.31;;;5.88;85.15
12203;BME280;6164;42.178;24.622;2023-02-15T07:30:21;101073.72;;;5.93;83.39
12203;BME280;6164;42.178;24.622;2023-02-15T07:32:47;101069.75;;;6.00;82.59
12203;BME280;6164;42.178;24.622;2023-02-15T07:35:33;101068.63;;;6.04;83.05
12203;BME280;6164;42.178;24.622;2023-02-15T07:38:00;101066.09;;;6.15;81.91
12203;BME280;6164;42.178;24.622;2023-02-15T07:40:26;101067.47;;;6.21;80.98
12203;BME280;6164;42.178;24.622;2023-02-15T07:42:53;101069.66;;;6.27;80.95
12203;BME280;6164;42.178;24.622;2023-02-15T07:45:20;101071.34;;;6.40;81.23
12203;BME280;6164;42.178;24.622;2023-02-15T07:47:46;101076.03;;;6.48;80.51
12203;BME280;6164;42.178;24.622;2023-02-15T07:50:13;101079.59;;;6.59;79.88
12203;BME280;6164;42.178;24.622;2023-02-15T07:52:41;101071.28;;;6.65;79.01
12203;BME280;6164;42.178;24.622;2023-02-15T07:55:07;101084.00;;;6.72;78.34
12203;BME280;6164;42.178;24.622;2023-02-15T07:57:38;101083.03;;;6.72;77.82
12203;BME280;6164;42.178;24.622;2023-02-15T08:00:07;101083.84;;;6.86;78.28
12203;BME280;6164;42.178;24.622;2023-02-15T08:02:34;101083.56;;;6.90;77.74
12203;BME280;6164;42.178;24.622;2023-02-15T08:05:02;101084.53;;;7.00;77.69
12203;BME280;6164;42.178;24.622;2023-02-15T08:07:28;101076.88;;;7.10;76.82
12203;BME280;6164;42.178;24.622;2023-02-15T08:09:56;101081.78;;;7.14;76.74
12203;BME280;6164;42.178;24.622;2023-02-15T08:12:25;101078.81;;;7.19;76.83
12203;BME280;6164;42.178;24.622;2023-02-15T08:14:52;101085.31;;;7.26;75.82
12203;BME280;6164;42.178;24.622;2023-02-15T08:17:18;101092.50;;;7.35;75.04
12203;BME280;6164;42.178;24.622;2023-02-15T08:19:44;101094.50;;;7.44;74.81
12203;BME280;6164;42.178;24.622;2023-02-15T08:22:12;101090.78;;;7.46;74.25
12203;BME280;6164;42.178;24.622;2023-02-15T08:24:39;101089.22;;;7.67;75.01
12203;BME280;6164;42.178;24.622;2023-02-15T08:27:08;101096.88;;;7.70;73.83
12203;BME280;6164;42.178;24.622;2023-02-15T08:29:36;101096.50;;;7.64;73.26
12203;BME280;6164;42.178;24.622;2023-02-15T08:32:05;101093.13;;;7.62;72.58
12203;BME280;6164;42.178;24.622;2023-02-15T08:34:32;101087.47;;;7.79;73.13
12203;BME280;6164;42.178;24.622;2023-02-15T08:36:59;101101.63;;;7.89;72.13
12203;BME280;6164;42.178;24.622;2023-02-15T08:39:26;101086.72;;;8.00;72.61
12203;BME280;6164;42.178;24.622;2023-02-15T08:41:53;101082.19;;;8.14;72.38
12203;BME280;6164;42.178;24.622;2023-02-15T08:44:21;101089.59;;;8.09;71.74
12203;BME280;6164;42.178;24.622;2023-02-15T08:46:47;101095.59;;;8.22;71.58
12203;BME280;6164;42.178;24.622;2023-02-15T08:49:15;101095.28;;;8.37;70.81
12203;BME280;6164;42.178;24.622;2023-02-15T08:51:43;101097.94;;;8.48;70.59
12203;BME280;6164;42.178;24.622;2023-02-15T08:54:11;101101.50;;;8.47;69.53
12203;BME280;6164;42.178;24.622;2023-02-15T08:56:39;101088.25;;;8.71;69.64
12203;BME280;6164;42.178;24.622;2023-02-15T08:59:07;101111.09;;;8.70;68.48
12203;BME280;6164;42.178;24.622;2023-02-15T09:01:35;101105.72;;;8.83;69.06
12203;BME280;6164;42.178;24.622;2023-02-15T09:04:03;101110.38;;;8.90;68.07
12203;BME280;6164;42.178;24.622;2023-02-15T09:06:30;101096.25;;;9.02;68.08
12203;BME280;6164;42.178;24.622;2023-02-15T09:08:57;101115.25;;;9.17;66.95
12203;BME280;6164;42.178;24.622;2023-02-15T09:11:24;101116.19;;;9.16;66.39
12203;BME280;6164;42.178;24.622;2023-02-15T09:13:52;101114.22;;;8.97;65.98
12203;BME280;6164;42.178;24.622;2023-02-15T09:16:19;101100.25;;;9.28;66.61
12203;BME280;6164;42.178;24.622;2023-02-15T09:18:47;101131.38;;;9.34;63.75
12203;BME280;6164;42.178;24.622;2023-02-15T09:21:15;101122.63;;;9.34;64.30
12203;BME280;6164;42.178;24.622;2023-02-15T09:23:42;101137.75;;;9.32;63.16
12203;BME280;6164;42.178;24.622;2023-02-15T09:26:09;101135.84;;;9.23;62.73
12203;BME280;6164;42.178;24.622;2023-02-15T09:28:37;101134.16;;;9.11;62.90
12203;BME280;6164;42.178;24.622;2023-02-15T09:31:04;101132.47;;;9.21;63.04
12203;BME280;6164;42.178;24.622;2023-02-15T09:33:32;101143.84;;;9.32;61.61
12203;BME280;6164;42.178;24.622;2023-02-15T09:36:00;101135.94;;;9.44;62.10
12203;BME280;6164;42.178;24.622;2023-02-15T09:38:26;101142.13;;;9.54;61.31
12203;BME280;6164;42.178;24.622;2023-02-15T09:40:55;101147.63;;;9.62;60.63
12203;BME280;6164;42.178;24.622;2023-02-15T09:43:27;101170.72;;;9.69;59.40
12203;BME280;6164;42.178;24.622;2023-02-15T09:46:00;101179.88;;;9.54;58.99
12203;BME280;6164;42.178;24.622;2023-02-15T09:48:39;101166.69;;;9.54;59.45
12203;BME280;6164;42.178;24.622;2023-02-15T09:51:12;101164.16;;;9.64;59.91
12203;BME280;6164;42.178;24.622;2023-02-15T09:53:51;101154.09;;;9.58;59.52
12203;BME280;6164;42.178;24.622;2023-02-15T09:56:23;101152.94;;;9.82;59.39
12203;BME280;6164;42.178;24.622;2023-02-15T09:58:54;101159.59;;;9.97;59.06
12203;BME280;6164;42.178;24.622;2023-02-15T10:01:25;101165.50;;;10.21;58.01
12203;BME280;6164;42.178;24.622;2023-02-15T10:04:02;101193.03;;;9.97;56.94
12203;BME280;6164;42.178;24.622;2023-02-15T10:06:34;101170.41;;;9.94;58.01
12203;BME280;6164;42.178;24.622;2023-02-15T10:09:12;101163.16;;;10.07;57.99
12203;BME280;6164;42.178;24.622;2023-02-15T10:11:44;101168.03;;;10.23;57.45
12203;BME280;6164;42.178;24.622;2023-02-15T10:14:22;101163.84;;;10.41;57.83
12203;BME280;6164;42.178;24.622;2023-02-15T10:16:56;101167.31;;;10.62;56.96
12203;BME280;6164;42.178;24.622;2023-02-15T10:19:28;101204.66;;;10.37;55.14
12203;BME280;6164;42.178;24.622;2023-02-15T10:22:05;101196.63;;;10.38;55.51
12203;BME280;6164;42.178;24.622;2023-02-15T10:24:43;101190.75;;;10.55;55.80
12203;BME280;6164;42.178;24.622;2023-02-15T10:27:13;101191.84;;;10.53;55.80
12203;BME280;6164;42.178;24.622;2023-02-15T10:29:43;101198.94;;;10.52;54.67
12203;BME280;6164;42.178;24.622;2023-02-15T10:32:18;101185.97;;;10.70;55.33
12203;BME280;6164;42.178;24.622;2023-02-15T10:34:50;101180.41;;;10.94;55.26
12203;BME280;6164;42.178;24.622;2023-02-15T10:37:23;101197.34;;;10.91;53.96
12203;BME280;6164;42.178;24.622;2023-02-15T10:39:56;101207.22;;;10.89;53.15
12203;BME280;6164;42.178;24.622;2023-02-15T10:42:27;101224.25;;;10.76;52.64
12203;BME280;6164;42.178;24.622;2023-02-15T10:47:48;101203.38;;;10.73;54.01
12203;BME280;6164;42.178;24.622;2023-02-15T10:50:24;101212.94;;;10.94;53.62
12203;BME280;6164;42.178;24.622;2023-02-15T10:52:57;101208.97;;;11.09;53.09
12203;BME280;6164;42.178;24.622;2023-02-15T10:55:29;101223.56;;;11.04;52.18
12203;BME280;6164;42.178;24.622;2023-02-15T10:58:01;101228.78;;;10.94;52.41
12203;BME280;6164;42.178;24.622;2023-02-15T11:00:34;101219.47;;;11.20;52.08
12203;BME280;6164;42.178;24.622;2023-02-15T11:05:55;101239.69;;;11.31;51.36
12203;BME280;6164;42.178;24.622;2023-02-15T11:08:29;101232.94;;;11.47;52.01
12203;BME280;6164;42.178;24.622;2023-02-15T11:10:58;101233.53;;;11.60;51.15
12203;BME280;6164;42.178;24.622;2023-02-15T11:13:27;101250.59;;;11.47;50.49
12203;BME280;6164;42.178;24.622;2023-02-15T11:15:59;101230.31;;;11.57;50.89
12203;BME280;6164;42.178;24.622;2023-02-15T11:18:28;101225.22;;;11.65;51.06
12203;BME280;6164;42.178;24.622;2023-02-15T11:20:58;101255.31;;;11.43;49.93
12203;BME280;6164;42.178;24.622;2023-02-15T11:23:29;101230.63;;;11.63;50.97
12203;BME280;6164;42.178;24.622;2023-02-15T11:25:56;101237.22;;;11.78;49.89
12203;BME280;6164;42.178;24.622;2023-02-15T11:28:24;101251.75;;;11.93;49.42
12203;BME280;6164;42.178;24.622;2023-02-15T11:30:54;101262.06;;;11.97;48.88
12203;BME280;6164;42.178;24.622;2023-02-15T11:33:22;101270.72;;;12.08;48.54
12203;BME280;6164;42.178;24.622;2023-02-15T11:35:52;101264.75;;;12.16;48.51
12203;BME280;6164;42.178;24.622;2023-02-15T11:38:21;101281.88;;;12.21;47.72
12203;BME280;6164;42.178;24.622;2023-02-15T11:40:49;101290.88;;;12.00;47.77
12203;BME280;6164;42.178;24.622;2023-02-15T11:43:19;101272.63;;;11.97;48.61
12203;BME280;6164;42.178;24.622;2023-02-15T11:45:48;101288.06;;;11.82;47.68
12203;BME280;6164;42.178;24.622;2023-02-15T11:48:14;101279.56;;;11.88;47.93
12203;BME280;6164;42.178;24.622;2023-02-15T11:50:43;101270.31;;;12.22;47.80
12203;BME280;6164;42.178;24.622;2023-02-15T11:53:11;101290.00;;;12.39;48.03
12203;BME280;6164;42.178;24.622;2023-02-15T11:55:39;101308.63;;;12.37;47.37
12203;BME280;6164;42.178;24.622;2023-02-15T11:58:08;101310.59;;;12.54;46.78
12203;BME280;6164;42.178;24.622;2023-02-15T12:00:38;101326.91;;;12.69;45.93
12203;BME280;6164;42.178;24.622;2023-02-15T12:03:12;101320.78;;;12.87;46.78
12203;BME280;6164;42.178;24.622;2023-02-15T12:05:40;101341.00;;;12.98;45.40
12203;BME280;6164;42.178;24.622;2023-02-15T12:08:10;101345.63;;;12.86;44.87
12203;BME280;6164;42.178;24.622;2023-02-15T12:10:40;101347.13;;;12.41;46.18
12203;BME280;6164;42.178;24.622;2023-02-15T12:13:11;101342.97;;;12.39;45.63
12203;BME280;6164;42.178;24.622;2023-02-15T12:15:38;101343.53;;;12.61;45.18
12203;BME280;6164;42.178;24.622;2023-02-15T12:18:15;101362.75;;;12.54;44.66
12203;BME280;6164;42.178;24.622;2023-02-15T12:20:43;101365.81;;;12.59;45.01
12203;BME280;6164;42.178;24.622;2023-02-15T12:23:11;101376.69;;;12.46;44.50
12203;BME280;6164;42.178;24.622;2023-02-15T12:25:39;101375.47;;;12.50;44.46
12203;BME280;6164;42.178;24.622;2023-02-15T12:28:19;101383.97;;;12.73;44.83
12203;BME280;6164;42.178;24.622;2023-02-15T12:30:47;101385.25;;;12.88;44.05
12203;BME280;6164;42.178;24.622;2023-02-15T12:33:15;101402.25;;;12.95;43.25
12203;BME280;6164;42.178;24.622;2023-02-15T12:35:42;101427.94;;;12.94;43.40
12203;BME280;6164;42.178;24.622;2023-02-15T12:38:19;101424.72;;;13.00;42.45
12203;BME280;6164;42.178;24.622;2023-02-15T12:40:56;101441.78;;;13.07;42.38
12203;BME280;6164;42.178;24.622;2023-02-15T12:43:25;101450.69;;;13.06;42.42
12203;BME280;6164;42.178;24.622;2023-02-15T12:45:52;101465.72;;;12.96;41.53
12203;BME280;6164;42.178;24.622;2023-02-15T12:48:20;101471.19;;;12.95;42.02
12203;BME280;6164;42.178;24.622;2023-02-15T12:50:46;101482.34;;;12.89;41.23
12203;BME280;6164;42.178;24.622;2023-02-15T12:53:14;101499.50;;;12.85;41.03
12203;BME280;6164;42.178;24.622;2023-02-15T12:55:50;101492.59;;;13.03;41.73
12203;BME280;6164;42.178;24.622;2023-02-15T12:58:18;101484.91;;;13.29;41.76
12203;BME280;6164;42.178;24.622;2023-02-15T13:00:46;101501.13;;;13.16;41.64
12203;BME280;6164;42.178;24.622;2023-02-15T13:03:16;101500.69;;;13.30;41.62
12203;BME280;6164;42.178;24.622;2023-02-15T13:05:43;101486.16;;;13.53;41.57
12203;BME280;6164;42.178;24.622;2023-02-15T13:08:11;101508.34;;;13.62;40.54
12203;BME280;6164;42.178;24.622;2023-02-15T13:10:39;101523.88;;;13.47;40.22
12203;BME280;6164;42.178;24.622;2023-02-15T13:13:09;101546.91;;;13.47;39.88